Impacts TAF Board
For situational awareness. Not to be used for flight planning purposes.
IDs:

KIAH - Houston/Bush Intl, TX, US

Issued at 1120 UTC 17 Nov 2019
Updated at 1427 UTC 17 Nov 2019
Potential Impact None Slight Moderate High
Time1353Z 17/15Z 17/16Z 17/17Z 17/18Z 17/19Z 17/20Z 17/21Z 17/22Z 17/23Z 18/00Z 18/01Z 18/02Z 18/03Z>>
Type OBS PRVL PRVL PRVL PRVL PRVL PRVL PRVL PRVL PRVL PRVL PRVL PRVL PRVL
VIS 7 >6 >6 >6 >6 >6 >6 >6 >6 >6 >6 >6 >6 >6
CIG 250 250 250 250 250 250 250 250 250 250 250 250 250 --
Cover BKN OVC OVC OVC BKN BKN BKN BKN BKN BKN BKN BKN BKN FEW
FltCat VFR VFR VFR VFR VFR VFR VFR VFR VFR VFR VFR VFR VFR VFR
WX -- -- -- -- -- -- -- -- -- -- -- -- -- --
WDir 300 VRB VRB VRB 190 190 190 190 190 190 190 190 190 VRB
WSpd 3 2 2 2 5 5 5 5 5 5 5 5 5 3
WGst -- -- -- -- -- -- -- -- -- -- -- -- -- --
R08/26
XWnd 2 VRB VRB VRB -5 -5 -5 -5 -5 -5 -5 -5 -5 VRB
HWnd -3 VRB VRB VRB -1 -1 -1 -1 -1 -1 -1 -1 -1 VRB
R09/27
XWnd 2 VRB VRB VRB -5 -5 -5 -5 -5 -5 -5 -5 -5 VRB
HWnd -3 VRB VRB VRB -1 -1 -1 -1 -1 -1 -1 -1 -1 VRB
R15/33
XWnd -2 VRB VRB VRB -3 -3 -3 -3 -3 -3 -3 -3 -3 VRB
HWnd -3 VRB VRB VRB 4 4 4 4 4 4 4 4 4 VRB
Raw TAF
KIAH 171120Z 1712/1818 VRB02KT P6SM OVC250
  FM171800 19005KT P6SM FEW050 BKN250
  FM180300 VRB03KT P6SM FEW250
  FM181200 34005KT P6SM SCT250


Raw METAR
KIAH 171353Z 30003KT 7SM BKN250 07/05 A3011 RMK AO2 SLP198 T00720050
KIAH 171253Z 34003KT 10SM FEW150 BKN250 04/03 A3009 RMK AO2 SLP190 T00440033
KIAH 171153Z 00000KT 10SM BKN250 05/04 A3008 RMK AO2 SLP186 T00500039 10072 20050 58002

METAR Board
Radar Display
Forecast Discussion
For situational awareness. Not to be used for flight planning purposes.